createdAt,value
2022-11-12T00:01:11.024Z,5.14
2022-11-12T00:03:58.026Z,5.11
2022-11-12T00:06:31.106Z,5.10
2022-11-12T00:09:18.034Z,5.07
2022-11-12T00:11:51.100Z,5.08
2022-11-12T00:14:38.032Z,5.06
2022-11-12T00:17:11.093Z,5.02
2022-11-12T00:19:58.025Z,5.00
2022-11-12T00:22:38.039Z,4.99
2022-11-12T00:25:32.033Z,4.93
2022-11-12T00:28:26.303Z,4.87
2022-11-12T00:31:19.027Z,4.82
2022-11-12T00:33:59.096Z,4.81
2022-11-12T00:36:53.188Z,4.79
2022-11-12T00:39:47.105Z,4.76
2022-11-12T00:42:34.037Z,4.75
2022-11-12T00:45:07.118Z,4.75
2022-11-12T00:47:54.045Z,4.72
2022-11-12T00:50:34.039Z,4.72
2022-11-12T00:53:28.067Z,4.70
2022-11-12T00:56:23.100Z,4.70
2022-11-12T00:59:17.100Z,4.70
2022-11-12T01:02:11.099Z,4.69
2022-11-12T01:04:58.033Z,4.69
2022-11-12T01:07:31.195Z,4.69
2022-11-12T01:10:19.097Z,4.69
2022-11-12T01:12:52.173Z,4.67
2022-11-12T01:15:46.060Z,4.65
2022-11-12T01:18:19.113Z,4.61
2022-11-12T01:21:18.043Z,4.59
2022-11-12T01:24:07.049Z,4.57
2022-11-12T01:26:47.101Z,4.55
2022-11-12T01:29:41.113Z,4.51
2022-11-12T01:32:28.071Z,4.48
2022-11-12T01:35:01.099Z,4.47
2022-11-12T01:37:48.066Z,4.43
2022-11-12T01:40:21.133Z,4.40
2022-11-12T01:43:08.056Z,4.37
2022-11-12T01:45:42.165Z,4.36
2022-11-12T01:48:36.076Z,4.34
2022-11-12T01:51:12.219Z,4.32
2022-11-12T01:54:03.100Z,4.31
2022-11-12T01:56:42.226Z,4.30
2022-11-12T01:59:37.103Z,4.29
2022-11-12T02:02:10.216Z,4.28
2022-11-12T02:04:58.132Z,4.29
2022-11-12T02:07:32.209Z,4.26
2022-11-12T02:10:19.102Z,4.22
2022-11-12T02:13:18.106Z,4.20
2022-11-12T02:16:12.072Z,4.16
2022-11-12T02:19:06.125Z,4.13
2022-11-12T02:22:00.129Z,4.08
2022-11-12T02:24:54.130Z,4.05
2022-11-12T02:27:41.102Z,4.02
2022-11-12T02:30:14.229Z,3.99
2022-11-12T02:33:01.102Z,3.96
2022-11-12T02:35:41.100Z,3.92
2022-11-12T02:38:35.105Z,3.88
2022-11-12T02:41:29.097Z,3.88
2022-11-12T02:44:16.132Z,3.84
2022-11-12T02:46:49.197Z,3.83
2022-11-12T02:49:36.077Z,3.81
2022-11-12T02:52:09.193Z,3.81
2022-11-12T02:54:56.129Z,3.77
2022-11-12T02:57:37.105Z,3.76
2022-11-12T03:00:25.122Z,3.74
2022-11-12T03:03:08.137Z,3.72
2022-11-12T03:06:13.143Z,3.70
2022-11-12T03:09:07.101Z,3.69
2022-11-12T03:11:47.102Z,3.67
2022-11-12T03:14:27.100Z,3.65
2022-11-12T03:17:00.235Z,3.62
2022-11-12T03:19:54.138Z,3.60
2022-11-12T03:22:41.106Z,3.58
2022-11-12T03:25:15.190Z,3.56
2022-11-12T03:28:09.080Z,3.57
2022-11-12T03:30:44.224Z,3.56
2022-11-12T03:33:31.126Z,3.54
2022-11-12T03:36:04.216Z,3.54
2022-11-12T03:38:51.128Z,3.53
2022-11-12T03:41:31.083Z,3.51
2022-11-12T03:44:18.095Z,3.50
2022-11-12T03:46:57.168Z,3.50
2022-11-12T03:49:44.124Z,3.54
2022-11-12T03:52:17.249Z,3.53
2022-11-12T03:55:04.122Z,3.52
2022-11-12T03:57:37.228Z,3.52
2022-11-12T04:00:25.095Z,3.51
2022-11-12T04:02:59.257Z,3.51
2022-11-12T04:06:04.108Z,3.52
2022-11-12T04:08:44.136Z,3.50
2022-11-12T04:11:39.537Z,3.50
2022-11-12T04:14:33.133Z,3.51
2022-11-12T04:17:50.132Z,3.52
2022-11-12T04:21:02.127Z,3.52
2022-11-12T04:23:49.128Z,3.54
2022-11-12T04:26:32.102Z,3.54
2022-11-12T04:29:37.749Z,3.54
2022-11-12T04:32:11.252Z,3.54
2022-11-12T04:34:58.267Z,3.46
2022-11-12T04:37:44.592Z,3.42
2022-11-12T04:40:52.129Z,3.39
2022-11-12T04:43:43.736Z,3.37
2022-11-12T04:46:30.130Z,3.36
2022-11-12T04:49:03.251Z,3.37
2022-11-12T04:52:08.132Z,3.36
2022-11-12T04:54:41.285Z,3.33
2022-11-12T04:57:28.136Z,3.29
2022-11-12T05:00:08.150Z,3.29
2022-11-12T05:02:57.142Z,3.28
2022-11-12T05:05:33.866Z,3.25
2022-11-12T05:08:21.148Z,3.23
2022-11-12T05:10:54.220Z,3.23
2022-11-12T05:13:41.150Z,3.22
2022-11-12T05:16:14.245Z,3.19
2022-11-12T05:19:01.156Z,3.18
2022-11-12T05:21:52.913Z,3.18
2022-11-12T05:24:47.152Z,3.16
2022-11-12T05:27:23.246Z,3.14
2022-11-12T05:30:11.150Z,3.11
2022-11-12T05:32:44.235Z,3.09
2022-11-12T05:35:31.159Z,3.06
2022-11-12T05:38:06.137Z,3.05
2022-11-12T05:40:53.167Z,3.04
2022-11-12T05:43:26.344Z,3.01
2022-11-12T05:46:13.167Z,2.99
2022-11-12T05:48:46.215Z,2.99
2022-11-12T05:51:33.162Z,2.98
2022-11-12T05:54:07.341Z,2.94
2022-11-12T05:56:58.155Z,2.93
2022-11-12T05:59:34.140Z,2.91
2022-11-12T06:02:21.221Z,2.89
2022-11-12T06:04:54.236Z,2.89
2022-11-12T06:07:41.160Z,2.91
2022-11-12T06:10:22.157Z,2.91
2022-11-12T06:13:16.222Z,2.91
2022-11-12T06:16:03.157Z,2.89
2022-11-12T06:18:36.315Z,2.94
2022-11-12T06:21:31.309Z,3.00
2022-11-12T06:24:18.139Z,3.04
2022-11-12T06:26:59.319Z,3.06
2022-11-12T06:29:53.148Z,3.10
2022-11-12T06:32:40.216Z,3.11
2022-11-12T06:35:14.315Z,3.11
2022-11-12T06:38:02.219Z,3.15
2022-11-12T06:40:35.293Z,3.19
2022-11-12T06:43:22.220Z,3.18
2022-11-12T06:45:55.292Z,3.18
2022-11-12T06:48:42.222Z,3.19
2022-11-12T06:51:32.217Z,3.18
2022-11-12T06:54:26.162Z,3.21
2022-11-12T06:57:20.218Z,3.25
2022-11-12T07:00:14.225Z,3.29
2022-11-12T07:03:01.174Z,3.36
2022-11-12T07:05:34.292Z,3.35
2022-11-12T07:08:21.188Z,3.41
2022-11-12T07:10:54.318Z,3.47
2022-11-12T07:13:43.177Z,3.52
2022-11-12T07:16:18.807Z,3.57
2022-11-12T07:19:05.198Z,3.58
2022-11-12T07:21:38.313Z,3.63
2022-11-12T07:24:25.287Z,3.68
2022-11-12T07:27:05.201Z,3.76
2022-11-12T07:29:59.252Z,3.82
2022-11-12T07:32:56.250Z,3.89
2022-11-12T07:35:43.176Z,3.95
2022-11-12T07:38:17.494Z,4.02
2022-11-12T07:41:16.221Z,4.09
2022-11-12T07:43:51.296Z,4.17
2022-11-12T07:46:40.220Z,4.23
2022-11-12T07:49:13.300Z,4.30
2022-11-12T07:52:03.250Z,4.34
2022-11-12T07:54:43.198Z,4.44
2022-11-12T07:57:30.221Z,4.50
2022-11-12T08:00:03.930Z,4.58
2022-11-12T08:02:50.221Z,4.66
2022-11-12T08:05:30.222Z,4.73
2022-11-12T08:08:18.222Z,4.79
2022-11-12T08:10:58.225Z,4.88
2022-11-12T08:13:52.226Z,5.00
2022-11-12T08:16:39.245Z,5.11
2022-11-12T08:19:19.297Z,5.19
2022-11-12T08:22:13.264Z,5.29
2022-11-12T08:25:00.223Z,5.38
2022-11-12T08:27:40.320Z,5.51
2022-11-12T08:30:27.257Z,5.60
2022-11-12T08:33:08.316Z,5.71
2022-11-12T08:35:55.257Z,5.83
2022-11-12T08:38:28.570Z,5.98
2022-11-12T08:41:17.264Z,6.15
2022-11-12T08:43:57.256Z,6.31
2022-11-12T08:46:51.251Z,6.44
2022-11-12T08:49:38.228Z,6.58
2022-11-12T08:52:14.249Z,6.73
2022-11-12T08:55:01.255Z,6.88
2022-11-12T08:57:35.835Z,7.05
2022-11-12T09:00:22.225Z,7.27
2022-11-12T09:02:55.374Z,7.44
2022-11-12T09:05:42.228Z,7.60
2022-11-12T09:08:18.389Z,7.77
2022-11-12T09:11:05.318Z,7.94
2022-11-12T09:13:45.327Z,8.02
2022-11-12T09:16:39.247Z,8.11
2022-11-12T09:19:33.263Z,8.21
2022-11-12T09:22:27.343Z,8.24
2022-11-12T09:25:21.260Z,8.26
2022-11-12T09:28:24.194Z,8.30
2022-11-12T09:30:59.375Z,8.36
2022-11-12T09:33:46.246Z,8.38
2022-11-12T09:36:26.242Z,8.40
2022-11-12T09:39:13.265Z,8.45
2022-11-12T09:41:48.365Z,8.50
2022-11-12T09:44:40.008Z,8.62
2022-11-12T09:47:33.379Z,8.76
2022-11-12T09:50:32.248Z,8.89
2022-11-12T09:53:20.078Z,8.96
2022-11-12T09:56:12.255Z,9.03
2022-11-12T09:58:52.238Z,9.03
2022-11-12T10:02:10.269Z,9.08
2022-11-12T10:05:17.972Z,9.18
2022-11-12T10:08:19.305Z,9.23
2022-11-12T10:11:32.150Z,9.24
2022-11-12T10:14:25.318Z,9.19
2022-11-12T10:17:15.375Z,9.20
2022-11-12T10:20:23.310Z,9.26
2022-11-12T10:23:29.312Z,9.32
2022-11-12T10:26:24.327Z,9.33
2022-11-12T10:29:06.160Z,9.34
2022-11-12T10:31:53.293Z,9.39
2022-11-12T10:34:36.255Z,9.40
2022-11-12T10:37:37.308Z,9.45
2022-11-12T10:40:27.297Z,9.51
2022-11-12T10:43:17.306Z,9.55
2022-11-12T10:46:29.310Z,9.61
2022-11-12T10:49:09.416Z,9.66
2022-11-12T10:52:04.347Z,9.71
2022-11-12T10:54:54.963Z,9.73
2022-11-12T10:57:49.292Z,9.78
2022-11-12T11:00:36.325Z,9.80
2022-11-12T11:03:35.315Z,9.79
2022-11-12T11:06:22.321Z,9.87
2022-11-12T11:09:29.309Z,9.90
2022-11-12T11:12:33.298Z,9.95
2022-11-12T11:15:12.366Z,10.06
2022-11-12T11:17:59.367Z,10.10
2022-11-12T11:20:38.419Z,10.09
2022-11-12T11:23:33.292Z,10.06
2022-11-12T11:26:26.443Z,10.10
2022-11-12T11:29:28.321Z,10.17
2022-11-12T11:32:25.419Z,10.24
2022-11-12T11:35:27.291Z,10.27
2022-11-12T11:38:44.320Z,10.25
2022-11-12T11:42:05.304Z,10.28
2022-11-12T11:45:29.358Z,10.29
2022-11-12T11:48:28.813Z,10.24
2022-11-12T11:51:40.373Z,10.27
2022-11-12T11:54:48.401Z,10.29
2022-11-12T11:57:40.328Z,10.34
2022-11-12T12:00:26.420Z,10.38
2022-11-12T12:03:34.397Z,10.40
2022-11-12T12:06:10.412Z,10.43
2022-11-12T12:09:36.323Z,10.44
2022-11-12T12:12:24.637Z,10.46
2022-11-12T12:15:33.350Z,10.64
2022-11-12T12:18:32.429Z,10.68
2022-11-12T12:21:23.350Z,10.67
2022-11-12T12:24:29.375Z,10.67
2022-11-12T12:27:32.368Z,10.68
2022-11-12T12:30:10.406Z,10.79
2022-11-12T12:33:15.843Z,10.79
2022-11-12T12:36:24.449Z,10.81
2022-11-12T12:39:18.369Z,10.81
2022-11-12T12:42:02.408Z,10.80
2022-11-12T12:45:08.370Z,10.75
2022-11-12T12:47:46.440Z,10.76
2022-11-12T12:50:34.373Z,10.77
2022-11-12T12:53:22.414Z,10.76
2022-11-12T12:56:12.379Z,10.77
2022-11-12T12:58:55.486Z,10.74
2022-11-12T13:01:43.367Z,10.73
2022-11-12T13:04:16.414Z,10.74
2022-11-12T13:07:08.606Z,10.75
2022-11-12T13:09:44.407Z,10.77
2022-11-12T13:13:09.355Z,10.76
2022-11-12T13:16:00.369Z,10.80
2022-11-12T13:18:54.369Z,10.84
2022-11-12T13:21:48.378Z,10.85
2022-11-12T13:25:07.375Z,10.86
2022-11-12T13:27:53.359Z,10.85
2022-11-12T13:30:40.369Z,10.85
2022-11-12T13:33:33.557Z,10.84
2022-11-12T13:36:32.374Z,10.83
2022-11-12T13:39:19.434Z,10.82
2022-11-12T13:42:25.366Z,10.79
2022-11-12T13:44:58.416Z,10.76
2022-11-12T13:47:45.361Z,10.71
2022-11-12T13:50:25.432Z,10.65
2022-11-12T13:53:17.358Z,10.61
2022-11-12T13:55:58.468Z,10.58
2022-11-12T13:58:50.368Z,10.55
2022-11-12T14:01:27.540Z,10.52
2022-11-12T14:04:18.368Z,10.48
2022-11-12T14:06:58.527Z,10.45
2022-11-12T14:10:04.375Z,10.39
2022-11-12T14:12:44.373Z,10.34
2022-11-12T14:16:13.388Z,10.27
2022-11-12T14:19:32.373Z,10.21
2022-11-12T14:22:27.368Z,10.15
2022-11-12T14:25:24.442Z,10.08
2022-11-12T14:28:08.428Z,10.02
2022-11-12T14:31:02.367Z,9.99
2022-11-12T14:33:49.394Z,9.94
2022-11-12T14:36:24.475Z,9.89
2022-11-12T14:39:13.380Z,9.82
2022-11-12T14:41:57.381Z,9.75
2022-11-12T14:44:45.367Z,9.66
2022-11-12T14:47:18.951Z,9.58
2022-11-12T14:50:05.388Z,9.53
2022-11-12T14:52:50.417Z,9.46
2022-11-12T14:55:47.412Z,9.38
2022-11-12T14:58:35.369Z,9.30
2022-11-12T15:02:21.750Z,9.21
2022-11-12T15:04:52.699Z,9.10
2022-11-12T15:08:10.444Z,9.01
2022-11-12T15:11:04.421Z,8.93
2022-11-12T15:13:52.423Z,8.87
2022-11-12T15:16:29.490Z,8.80
2022-11-12T15:19:24.426Z,8.71
2022-11-12T15:22:04.497Z,8.64
2022-11-12T15:24:52.490Z,8.56
2022-11-12T15:27:47.536Z,8.48
2022-11-12T15:30:37.402Z,8.41
2022-11-12T15:33:17.530Z,8.34
2022-11-12T15:36:06.419Z,8.29
2022-11-12T15:38:42.489Z,8.22
2022-11-12T15:41:33.394Z,8.16
2022-11-12T15:44:06.451Z,8.11
2022-11-12T15:46:53.399Z,8.05
2022-11-12T15:49:26.486Z,7.99
2022-11-12T15:52:13.470Z,7.94
2022-11-12T15:54:46.529Z,7.90
2022-11-12T15:57:36.425Z,7.83
2022-11-12T16:00:36.510Z,7.80
2022-11-12T16:03:27.664Z,7.74
2022-11-12T16:06:07.198Z,7.69
2022-11-12T16:08:55.438Z,7.63
2022-11-12T16:11:37.635Z,7.58
2022-11-12T16:14:25.125Z,7.52
2022-11-12T16:16:58.518Z,7.45
2022-11-12T16:19:45.421Z,7.37
2022-11-12T16:22:18.683Z,7.30
2022-11-12T16:25:05.436Z,7.24
2022-11-12T16:27:45.434Z,7.21
2022-11-12T16:30:37.439Z,7.21
2022-11-12T16:33:10.550Z,7.19
2022-11-12T16:35:57.430Z,7.13
2022-11-12T16:38:30.534Z,7.06
2022-11-12T16:41:18.435Z,7.00
2022-11-12T16:43:58.451Z,6.95
2022-11-12T16:46:53.421Z,6.90
2022-11-12T16:49:38.417Z,6.86
2022-11-12T16:52:25.429Z,6.79
2022-11-12T16:55:12.428Z,6.73
2022-11-12T16:57:52.451Z,6.63
2022-11-12T17:00:46.448Z,6.59
2022-11-12T17:03:33.443Z,6.53
2022-11-12T17:06:06.557Z,6.47
2022-11-12T17:08:54.441Z,6.46
2022-11-12T17:11:27.507Z,6.45
2022-11-12T17:14:14.469Z,6.42
2022-11-12T17:16:47.611Z,6.38
2022-11-12T17:19:34.460Z,6.34
2022-11-12T17:22:14.524Z,6.30
2022-11-12T17:25:08.462Z,6.28
2022-11-12T17:28:02.454Z,6.27
2022-11-12T17:30:49.443Z,6.23
2022-11-12T17:33:22.519Z,6.16
2022-11-12T17:36:10.457Z,6.13
2022-11-12T17:38:50.456Z,6.10
2022-11-12T17:41:44.451Z,6.03
2022-11-12T17:44:31.451Z,5.96
2022-11-12T17:47:11.452Z,5.94
2022-11-12T17:50:05.472Z,5.89
2022-11-12T17:52:45.461Z,5.84
2022-11-12T17:55:25.464Z,5.80
2022-11-12T17:57:58.549Z,5.77
2022-11-12T18:00:45.501Z,5.74
2022-11-12T18:03:18.534Z,5.73
2022-11-12T18:06:06.468Z,5.69
2022-11-12T18:08:39.593Z,5.66
2022-11-12T18:11:26.476Z,5.62
2022-11-12T18:14:06.450Z,5.59
2022-11-12T18:16:53.469Z,5.56
2022-11-12T18:19:33.472Z,5.53
2022-11-12T18:22:28.487Z,5.49
2022-11-12T18:25:16.452Z,5.44
2022-11-12T18:27:49.594Z,5.44
2022-11-12T18:30:36.473Z,5.39
2022-11-12T18:33:09.570Z,5.37
2022-11-12T18:36:06.494Z,5.35
2022-11-12T18:38:41.569Z,5.32
2022-11-12T18:41:32.480Z,5.33
2022-11-12T18:44:26.176Z,5.30
2022-11-12T18:47:13.502Z,5.27
2022-11-12T18:49:54.469Z,5.23
2022-11-12T18:52:48.473Z,5.21
2022-11-12T18:55:35.504Z,5.19
2022-11-12T18:58:15.486Z,5.18
2022-11-12T19:01:02.555Z,5.14
2022-11-12T19:03:42.495Z,5.10
2022-11-12T19:06:32.501Z,5.08
2022-11-12T19:09:16.454Z,5.06
2022-11-12T19:12:10.482Z,5.03
2022-11-12T19:14:57.493Z,5.03
2022-11-12T19:17:31.243Z,5.00
2022-11-12T19:20:18.505Z,4.97
2022-11-12T19:22:51.570Z,4.94
2022-11-12T19:25:40.496Z,4.92
2022-11-12T19:28:13.596Z,4.88
2022-11-12T19:31:00.475Z,4.86
2022-11-12T19:33:33.596Z,4.81
2022-11-12T19:36:22.497Z,4.76
2022-11-12T19:39:06.597Z,4.74
2022-11-12T19:41:53.496Z,4.71
2022-11-12T19:44:26.532Z,4.70
2022-11-12T19:47:13.525Z,4.71
2022-11-12T19:49:46.615Z,4.68
2022-11-12T19:52:33.527Z,4.64
2022-11-12T19:55:06.585Z,4.61
2022-11-12T19:57:53.498Z,4.56
2022-11-12T20:00:26.592Z,4.55
2022-11-12T20:03:13.523Z,4.53
2022-11-12T20:05:46.612Z,4.49
2022-11-12T20:08:33.516Z,4.48
2022-11-12T20:11:07.576Z,4.44
2022-11-12T20:13:54.525Z,4.41
2022-11-12T20:16:34.520Z,4.38
2022-11-12T20:19:28.524Z,4.34
2022-11-12T20:22:32.103Z,4.32
2022-11-12T20:25:26.538Z,4.30
2022-11-12T20:28:13.544Z,4.29
2022-11-12T20:30:46.602Z,4.26
2022-11-12T20:33:37.880Z,4.23
2022-11-12T20:36:20.041Z,4.19
2022-11-12T20:39:06.539Z,4.18
2022-11-12T20:41:40.883Z,4.16
2022-11-12T20:44:27.535Z,4.16
2022-11-12T20:47:01.539Z,4.14
2022-11-12T20:49:48.523Z,4.11
2022-11-12T20:52:21.610Z,4.09
2022-11-12T20:55:08.512Z,4.05
2022-11-12T20:57:41.608Z,4.02
2022-11-12T21:00:29.547Z,3.98
2022-11-12T21:03:02.601Z,3.95
2022-11-12T21:05:49.526Z,3.91
2022-11-12T21:08:29.827Z,3.87
2022-11-12T21:11:26.553Z,3.81
2022-11-12T21:14:07.544Z,3.75
2022-11-12T21:16:47.554Z,3.75
2022-11-12T21:19:20.668Z,3.73
2022-11-12T21:22:14.528Z,3.73
2022-11-12T21:25:08.538Z,3.71
2022-11-12T21:27:55.524Z,3.69
2022-11-12T21:30:28.627Z,3.67
2022-11-12T21:33:15.551Z,3.64
2022-11-12T21:35:48.606Z,3.63
2022-11-12T21:38:35.561Z,3.63
2022-11-12T21:41:11.670Z,3.64
2022-11-12T21:43:58.651Z,3.65
2022-11-12T21:46:37.974Z,3.63
2022-11-12T21:49:24.566Z,3.62
2022-11-12T21:51:57.659Z,3.61
2022-11-12T21:54:44.531Z,3.58
2022-11-12T21:57:18.859Z,3.53
2022-11-12T22:00:39.127Z,3.53
2022-11-12T22:03:01.650Z,3.48
2022-11-12T22:05:48.557Z,3.46
2022-11-12T22:08:21.641Z,3.45
2022-11-12T22:11:15.553Z,3.45
2022-11-12T22:13:56.585Z,3.43
2022-11-12T22:16:43.574Z,3.42
2022-11-12T22:19:23.561Z,3.41
2022-11-12T22:22:17.569Z,3.38
2022-11-12T22:25:04.592Z,3.32
2022-11-12T22:27:37.653Z,3.31
2022-11-12T22:30:24.569Z,3.27
2022-11-12T22:32:57.637Z,3.29
2022-11-12T22:35:44.587Z,3.27
2022-11-12T22:38:24.708Z,3.26
2022-11-12T22:41:14.601Z,3.18
2022-11-12T22:43:48.702Z,3.17
2022-11-12T22:46:36.575Z,3.16
2022-11-12T22:49:10.878Z,3.13
2022-11-12T22:51:57.586Z,3.11
2022-11-12T22:54:37.603Z,3.09
2022-11-12T22:57:31.587Z,3.05
2022-11-12T23:00:19.565Z,3.01
2022-11-12T23:02:59.600Z,2.99
2022-11-12T23:05:48.589Z,3.01
2022-11-12T23:08:21.661Z,3.04
2022-11-12T23:11:10.587Z,3.05
2022-11-12T23:13:44.739Z,3.07
2022-11-12T23:16:36.575Z,3.09
2022-11-12T23:19:16.581Z,3.14
2022-11-12T23:22:10.583Z,3.19
2022-11-12T23:24:57.586Z,3.23
2022-11-12T23:27:30.674Z,3.26
2022-11-12T23:30:17.605Z,3.26
2022-11-12T23:32:50.677Z,3.27
2022-11-12T23:35:37.621Z,3.27
2022-11-12T23:38:10.670Z,3.29
2022-11-12T23:41:03.586Z,3.27
2022-11-12T23:43:44.601Z,3.30
2022-11-12T23:46:31.605Z,3.32
2022-11-12T23:49:04.679Z,3.36
2022-11-12T23:51:51.589Z,3.38
2022-11-12T23:54:24.678Z,3.38
2022-11-12T23:57:11.607Z,3.39
2022-11-12T23:59:51.622Z,3.40
